createdAt,value
2023-02-05T00:01:49.452Z,10.18
2023-02-05T00:04:17.557Z,9.38
2023-02-05T00:06:47.263Z,12.52
2023-02-05T00:09:15.167Z,10.60
2023-02-05T00:11:43.087Z,14.65
2023-02-05T00:14:11.077Z,13.23
2023-02-05T00:16:39.031Z,14.55
2023-02-05T00:19:07.323Z,13.20
2023-02-05T00:21:35.209Z,10.45
2023-02-05T00:24:04.921Z,10.18
2023-02-05T00:26:33.073Z,8.57
2023-02-05T00:29:01.030Z,6.47
2023-02-05T00:31:29.570Z,6.72
2023-02-05T00:33:57.930Z,8.20
2023-02-05T00:36:27.423Z,7.38
2023-02-05T00:38:55.529Z,9.73
2023-02-05T00:41:24.772Z,9.05
2023-02-05T00:43:52.678Z,8.07
2023-02-05T00:46:20.670Z,9.60
2023-02-05T00:48:48.807Z,10.05
2023-02-05T00:51:16.705Z,9.63
2023-02-05T00:53:44.660Z,9.50
2023-02-05T00:56:12.875Z,8.90
2023-02-05T00:58:47.347Z,9.73
2023-02-05T01:01:15.840Z,10.30
2023-02-05T01:03:44.310Z,9.95
2023-02-05T01:06:12.306Z,9.35
2023-02-05T01:08:40.522Z,12.35
2023-02-05T01:11:10.286Z,9.68
2023-02-05T01:13:38.646Z,10.20
2023-02-05T01:16:10.349Z,10.35
2023-02-05T01:18:38.560Z,10.80
2023-02-05T01:21:06.782Z,11.98
2023-02-05T01:23:34.766Z,12.65
2023-02-05T01:26:02.634Z,10.05
2023-02-05T01:28:30.580Z,9.50
2023-02-05T01:30:58.718Z,9.82
2023-02-05T01:33:28.160Z,10.00
2023-02-05T01:35:56.540Z,8.57
2023-02-05T01:38:24.474Z,10.20
2023-02-05T01:40:52.616Z,7.85
2023-02-05T01:43:20.938Z,6.80
2023-02-05T01:46:04.814Z,5.88
2023-02-05T01:48:39.509Z,5.38
2023-02-05T01:51:12.894Z,6.13
2023-02-05T01:53:41.431Z,7.25
2023-02-05T01:56:15.787Z,6.38
2023-02-05T01:58:49.244Z,8.18
2023-02-05T02:01:17.390Z,5.13
2023-02-05T02:03:47.394Z,4.95
2023-02-05T02:08:43.851Z,4.03
2023-02-05T02:11:17.097Z,4.47
2023-02-05T02:13:48.398Z,4.82
2023-02-05T02:16:17.318Z,4.50
2023-02-05T02:18:47.529Z,4.43
2023-02-05T02:24:29.791Z,4.07
2023-02-05T02:27:23.727Z,4.00
2023-02-05T02:29:58.669Z,4.13
2023-02-05T02:32:36.554Z,4.40
2023-02-05T02:35:11.859Z,4.45
2023-02-05T02:37:48.459Z,4.32
2023-02-05T02:40:21.957Z,4.25
2023-02-05T02:42:57.005Z,5.45
2023-02-05T02:45:30.433Z,4.68
2023-02-05T02:48:01.826Z,5.57
2023-02-05T02:50:34.863Z,5.45
2023-02-05T02:53:06.122Z,5.43
2023-02-05T02:55:38.280Z,4.75
2023-02-05T02:58:09.817Z,5.30
2023-02-05T03:00:42.869Z,7.10
2023-02-05T03:03:14.712Z,7.32
2023-02-05T03:05:45.384Z,6.45
2023-02-05T03:08:18.457Z,7.03
2023-02-05T03:10:52.009Z,8.77
2023-02-05T03:13:20.639Z,7.78
2023-02-05T03:15:56.178Z,6.18
2023-02-05T03:18:25.560Z,6.97
2023-02-05T03:20:56.567Z,6.50
2023-02-05T03:23:24.997Z,5.78
2023-02-05T03:25:52.872Z,6.53
2023-02-05T03:28:25.938Z,5.40
2023-02-05T03:31:04.546Z,3.25
2023-02-05T03:33:48.139Z,5.30
2023-02-05T03:36:26.534Z,4.15
2023-02-05T03:39:12.350Z,4.13
2023-02-05T03:41:57.706Z,5.35
2023-02-05T03:44:48.002Z,6.85
2023-02-05T03:47:30.949Z,3.58
2023-02-05T03:50:08.312Z,5.85
2023-02-05T03:52:42.877Z,4.10
2023-02-05T03:55:18.489Z,5.25
2023-02-05T03:57:53.747Z,4.25
2023-02-05T04:00:24.820Z,3.97
2023-02-05T04:02:56.065Z,5.40
2023-02-05T04:05:29.155Z,4.55
2023-02-05T04:07:58.854Z,4.57
2023-02-05T04:10:32.853Z,4.93
2023-02-05T04:13:03.186Z,4.20
2023-02-05T04:15:32.178Z,4.53
2023-02-05T04:18:04.307Z,6.43
2023-02-05T04:20:32.614Z,3.92
2023-02-05T04:23:01.305Z,3.75
2023-02-05T04:28:01.924Z,2.90
2023-02-05T04:30:31.359Z,3.47
2023-02-05T04:32:59.729Z,4.60
2023-02-05T04:35:29.054Z,5.78
2023-02-05T04:37:57.344Z,4.13
2023-02-05T04:40:25.371Z,3.28
2023-02-05T04:42:53.263Z,3.70
2023-02-05T04:45:22.651Z,3.25
2023-02-05T04:47:50.584Z,3.30
2023-02-05T04:50:18.515Z,3.70
2023-02-05T04:52:47.810Z,3.72
2023-02-05T04:55:16.136Z,5.10
2023-02-05T04:57:43.976Z,3.92
2023-02-05T05:00:13.151Z,5.70
2023-02-05T05:02:41.132Z,4.25
2023-02-05T05:05:09.733Z,3.90
2023-02-05T05:07:37.510Z,5.43
2023-02-05T05:10:08.205Z,6.32
2023-02-05T05:12:36.894Z,4.95
2023-02-05T05:15:05.719Z,3.88
2023-02-05T05:17:34.534Z,3.88
2023-02-05T05:20:02.468Z,3.92
2023-02-05T05:22:30.408Z,3.35
2023-02-05T05:24:58.391Z,3.72
2023-02-05T05:27:27.676Z,3.72
2023-02-05T05:29:55.639Z,3.73
2023-02-05T05:32:23.621Z,4.82
2023-02-05T05:34:51.518Z,4.30
2023-02-05T05:37:19.468Z,6.00
2023-02-05T05:40:04.812Z,5.28
2023-02-05T05:42:51.175Z,4.47
2023-02-05T05:45:19.255Z,5.65
2023-02-05T05:47:47.196Z,4.57
2023-02-05T05:50:15.437Z,4.53
2023-02-05T05:52:43.392Z,4.80
2023-02-05T05:55:11.248Z,4.70
2023-02-05T05:57:40.585Z,4.30
2023-02-05T06:00:09.429Z,4.47
2023-02-05T06:02:46.051Z,4.75
2023-02-05T06:05:14.025Z,5.22
2023-02-05T06:07:41.966Z,5.78
2023-02-05T06:10:10.140Z,3.95
2023-02-05T06:12:38.059Z,4.05
2023-02-05T06:15:08.616Z,4.47
2023-02-05T06:17:36.557Z,4.75
2023-02-05T06:20:04.973Z,5.57
2023-02-05T06:22:32.929Z,5.93
2023-02-05T06:25:02.264Z,6.57
2023-02-05T06:27:30.162Z,5.10
2023-02-05T06:29:58.069Z,5.43
2023-02-05T06:32:27.224Z,5.13
2023-02-05T06:34:55.166Z,5.38
2023-02-05T06:37:34.152Z,5.90
2023-02-05T06:40:15.880Z,4.75
2023-02-05T06:42:44.005Z,6.40
2023-02-05T06:45:12.237Z,5.55
2023-02-05T06:47:41.480Z,4.63
2023-02-05T06:50:10.033Z,5.15
2023-02-05T06:52:38.314Z,4.70
2023-02-05T06:55:07.034Z,4.82
2023-02-05T06:57:34.944Z,6.30
2023-02-05T07:00:02.901Z,5.18
2023-02-05T07:02:30.877Z,6.00
2023-02-05T07:05:00.099Z,5.25
2023-02-05T07:07:28.351Z,6.30
2023-02-05T07:09:56.287Z,6.40
2023-02-05T07:12:24.241Z,10.00
2023-02-05T07:14:52.109Z,9.88
2023-02-05T07:17:20.897Z,8.75
2023-02-05T07:19:49.048Z,10.00
2023-02-05T07:22:18.426Z,8.90
2023-02-05T07:24:47.520Z,5.83
2023-02-05T07:27:15.463Z,6.10
2023-02-05T07:29:43.868Z,5.75
2023-02-05T07:32:11.971Z,6.38
2023-02-05T07:34:40.339Z,5.28
2023-02-05T07:37:08.252Z,5.10
2023-02-05T07:39:37.601Z,5.22
2023-02-05T07:42:05.977Z,6.15
2023-02-05T07:44:42.945Z,6.47
2023-02-05T07:47:10.909Z,6.00
2023-02-05T07:49:38.793Z,6.68
2023-02-05T07:52:07.759Z,8.60
2023-02-05T07:54:37.144Z,8.02
2023-02-05T07:57:06.951Z,8.93
2023-02-05T07:59:35.031Z,10.30
2023-02-05T08:02:03.257Z,10.18
2023-02-05T08:04:31.380Z,8.60
2023-02-05T08:06:59.351Z,9.80
2023-02-05T08:09:27.336Z,14.98
2023-02-05T08:11:56.745Z,11.52
2023-02-05T08:14:24.715Z,11.27
2023-02-05T08:16:52.972Z,9.82
2023-02-05T08:19:20.937Z,7.93
2023-02-05T08:21:48.977Z,9.23
2023-02-05T08:24:16.962Z,8.93
2023-02-05T08:26:44.848Z,7.13
2023-02-05T08:29:14.136Z,7.03
2023-02-05T08:31:42.240Z,6.17
2023-02-05T08:34:10.203Z,8.23
2023-02-05T08:36:38.314Z,7.55
2023-02-05T08:39:06.281Z,7.32
2023-02-05T08:41:34.428Z,6.28
2023-02-05T08:44:02.408Z,6.90
2023-02-05T08:46:47.310Z,21.52
2023-02-05T08:49:17.931Z,20.30
2023-02-05T08:51:45.935Z,19.42
2023-02-05T08:54:15.287Z,9.57
2023-02-05T08:56:45.211Z,8.68
2023-02-05T08:59:13.565Z,7.88
2023-02-05T09:01:43.531Z,7.40
2023-02-05T09:04:14.088Z,9.45
2023-02-05T09:06:42.204Z,8.60
2023-02-05T09:09:10.026Z,8.70
2023-02-05T09:11:38.922Z,10.18
2023-02-05T09:14:07.699Z,11.18
2023-02-05T09:16:36.118Z,12.40
2023-02-05T09:19:05.379Z,12.18
2023-02-05T09:21:33.531Z,13.00
2023-02-05T09:24:01.495Z,11.40
2023-02-05T09:26:29.580Z,11.98
2023-02-05T09:28:57.482Z,11.30
2023-02-05T09:31:25.599Z,10.43
2023-02-05T09:33:55.729Z,11.82
2023-02-05T09:36:25.408Z,10.38
2023-02-05T09:39:12.001Z,14.70
2023-02-05T09:41:52.136Z,11.43
2023-02-05T09:44:33.719Z,13.50
2023-02-05T09:47:07.206Z,12.70
2023-02-05T09:49:45.555Z,10.45
2023-02-05T09:52:20.974Z,12.27
2023-02-05T09:54:55.731Z,13.23
2023-02-05T09:57:33.709Z,16.17
2023-02-05T10:00:02.066Z,9.20
2023-02-05T10:02:50.161Z,8.27
2023-02-05T10:05:22.342Z,8.95
2023-02-05T10:08:00.791Z,12.35
2023-02-05T10:10:30.276Z,8.85
2023-02-05T10:13:33.194Z,11.27
2023-02-05T10:16:16.422Z,13.30
2023-02-05T10:18:58.649Z,12.52
2023-02-05T10:21:40.494Z,12.18
2023-02-05T10:24:27.030Z,9.63
2023-02-05T10:27:00.667Z,10.55
2023-02-05T10:29:36.901Z,11.27
2023-02-05T10:32:17.539Z,10.23
2023-02-05T10:34:53.823Z,9.80
2023-02-05T10:37:29.346Z,11.38
2023-02-05T10:40:00.510Z,10.23
2023-02-05T10:42:33.774Z,10.52
2023-02-05T10:45:07.747Z,11.20
2023-02-05T10:47:54.639Z,17.15
2023-02-05T10:50:29.531Z,15.95
2023-02-05T10:52:57.831Z,12.32
2023-02-05T10:55:27.427Z,12.85
2023-02-05T10:57:55.496Z,10.63
2023-02-05T11:00:24.836Z,10.95
2023-02-05T11:02:55.720Z,10.20
2023-02-05T11:05:29.512Z,9.80
2023-02-05T11:07:58.538Z,10.65
2023-02-05T11:10:29.552Z,10.43
2023-02-05T11:13:00.445Z,10.73
2023-02-05T11:15:31.636Z,9.40
2023-02-05T11:18:01.865Z,8.80
2023-02-05T11:20:33.111Z,10.35
2023-02-05T11:23:15.431Z,9.43
2023-02-05T11:25:53.313Z,10.13
2023-02-05T11:28:25.088Z,10.27
2023-02-05T11:30:53.490Z,8.93
2023-02-05T11:33:28.862Z,9.60
2023-02-05T11:36:00.295Z,10.18
2023-02-05T11:38:39.660Z,10.65
2023-02-05T11:41:11.385Z,9.30
2023-02-05T11:43:42.176Z,8.95
2023-02-05T11:46:17.359Z,10.77
2023-02-05T11:48:52.110Z,11.20
2023-02-05T11:51:38.616Z,15.35
2023-02-05T11:54:18.738Z,13.98
2023-02-05T11:59:30.242Z,16.63
2023-02-05T12:02:28.549Z,15.63
2023-02-05T12:04:59.963Z,13.98
2023-02-05T12:07:33.127Z,14.88
2023-02-05T12:10:01.349Z,16.00
2023-02-05T12:12:39.580Z,13.38
2023-02-05T12:15:16.476Z,11.60
2023-02-05T12:17:54.179Z,12.27
2023-02-05T12:20:27.686Z,13.93
2023-02-05T12:23:35.466Z,13.27
2023-02-05T12:26:27.388Z,15.70
2023-02-05T12:29:08.314Z,15.43
2023-02-05T12:31:56.298Z,15.15
2023-02-05T12:34:32.306Z,16.33
2023-02-05T12:37:18.254Z,15.90
2023-02-05T12:39:51.531Z,16.30
2023-02-05T12:42:31.476Z,15.13
2023-02-05T12:45:25.906Z,16.23
2023-02-05T12:48:12.877Z,18.08
2023-02-05T12:50:54.262Z,25.83
2023-02-05T12:53:36.792Z,20.52
2023-02-05T12:56:22.260Z,17.88
2023-02-05T12:58:57.196Z,15.82
2023-02-05T13:01:34.997Z,15.85
2023-02-05T13:04:03.844Z,15.18
2023-02-05T13:06:35.513Z,16.35
2023-02-05T13:09:07.823Z,15.57
2023-02-05T13:11:41.533Z,15.73
2023-02-05T13:14:17.427Z,16.00
2023-02-05T13:16:49.689Z,16.58
2023-02-05T13:19:26.793Z,17.42
2023-02-05T13:22:15.288Z,16.83
2023-02-05T13:25:08.560Z,16.58
2023-02-05T13:27:58.824Z,17.17
2023-02-05T13:30:32.119Z,17.48
2023-02-05T13:33:05.948Z,16.90
2023-02-05T13:35:42.543Z,14.93
2023-02-05T13:38:39.701Z,16.33
2023-02-05T13:41:25.297Z,15.32
2023-02-05T13:44:19.231Z,15.60
2023-02-05T13:47:32.545Z,16.88
2023-02-05T13:50:32.959Z,18.02
2023-02-05T13:53:16.624Z,17.60
2023-02-05T13:56:03.410Z,19.85
2023-02-05T13:58:35.819Z,20.98
2023-02-05T14:01:06.995Z,23.15
2023-02-05T14:03:38.889Z,35.30
2023-02-05T14:06:17.839Z,32.67
2023-02-05T14:08:47.273Z,22.13
2023-02-05T14:11:15.531Z,23.77
2023-02-05T14:13:43.900Z,18.75
2023-02-05T14:16:35.114Z,20.85
2023-02-05T14:19:17.655Z,18.02
2023-02-05T14:22:03.878Z,22.50
2023-02-05T14:24:45.997Z,20.65
2023-02-05T14:27:51.278Z,18.05
2023-02-05T14:30:48.101Z,17.80
2023-02-05T14:33:37.884Z,19.08
2023-02-05T14:36:36.084Z,17.98
2023-02-05T14:39:07.743Z,17.75
2023-02-05T14:41:50.966Z,17.30
2023-02-05T14:44:23.245Z,16.17
2023-02-05T14:46:59.893Z,16.35
2023-02-05T14:49:31.967Z,16.38
2023-02-05T14:52:02.923Z,17.65
2023-02-05T14:54:34.872Z,18.17
2023-02-05T14:57:18.676Z,18.15
2023-02-05T14:59:54.773Z,18.83
2023-02-05T15:03:02.388Z,28.38
2023-02-05T15:05:37.847Z,20.30
2023-02-05T15:08:13.433Z,21.20
2023-02-05T15:10:49.034Z,24.45
2023-02-05T15:13:20.866Z,23.48
2023-02-05T15:16:25.482Z,20.58
2023-02-05T15:18:56.463Z,19.45
2023-02-05T15:21:28.604Z,29.80
2023-02-05T15:24:02.786Z,28.55
2023-02-05T15:26:40.929Z,24.88
2023-02-05T15:29:15.353Z,23.13
2023-02-05T15:31:47.208Z,35.60
2023-02-05T15:34:32.435Z,27.05
2023-02-05T15:37:06.476Z,18.85
2023-02-05T15:39:45.366Z,23.92
2023-02-05T15:42:19.247Z,17.08
2023-02-05T15:44:48.869Z,17.30
2023-02-05T15:47:21.842Z,26.05
2023-02-05T15:49:52.847Z,17.17
2023-02-05T15:52:24.664Z,17.83
2023-02-05T15:54:55.107Z,18.52
2023-02-05T15:57:27.084Z,19.42
2023-02-05T15:59:58.464Z,19.80
2023-02-05T16:02:28.988Z,19.27
2023-02-05T16:05:00.004Z,19.45
2023-02-05T16:07:31.125Z,19.65
2023-02-05T16:10:01.372Z,22.48
2023-02-05T16:15:01.606Z,19.50
2023-02-05T16:17:35.958Z,21.38
2023-02-05T16:20:15.328Z,19.27
2023-02-05T16:22:46.578Z,20.27
2023-02-05T16:25:30.819Z,20.50
2023-02-05T16:28:03.863Z,25.25
2023-02-05T16:30:40.576Z,22.02
2023-02-05T16:33:15.545Z,21.25
2023-02-05T16:35:48.438Z,24.17
2023-02-05T16:38:18.850Z,26.13
2023-02-05T16:40:50.309Z,26.35
2023-02-05T16:43:26.379Z,24.27
2023-02-05T16:46:23.472Z,31.13
2023-02-05T16:48:52.964Z,23.67
2023-02-05T16:51:35.632Z,29.15
2023-02-05T16:54:22.732Z,23.70
2023-02-05T16:56:56.992Z,22.92
2023-02-05T16:59:27.214Z,30.20
2023-02-05T17:04:28.467Z,30.95
2023-02-05T17:06:59.103Z,28.85
2023-02-05T17:09:33.183Z,29.45
2023-02-05T17:12:26.821Z,33.65
2023-02-05T17:14:57.047Z,32.20
2023-02-05T17:20:06.297Z,29.70
2023-02-05T17:22:35.136Z,28.30
2023-02-05T17:25:05.599Z,33.00
2023-02-05T17:27:38.053Z,36.75
2023-02-05T17:30:11.687Z,38.67
2023-02-05T17:32:41.205Z,32.35
2023-02-05T17:35:14.095Z,33.50
2023-02-05T17:37:41.905Z,31.30
2023-02-05T17:40:11.096Z,29.52
2023-02-05T17:42:38.979Z,31.52
2023-02-05T17:45:16.170Z,27.52
2023-02-05T17:47:45.610Z,36.70
2023-02-05T17:50:14.018Z,25.05
2023-02-05T17:52:42.085Z,28.00
2023-02-05T17:55:14.751Z,31.77
2023-02-05T17:57:43.593Z,28.35
2023-02-05T18:00:15.607Z,32.83
2023-02-05T18:02:45.063Z,26.40
2023-02-05T18:05:13.185Z,29.77
2023-02-05T18:07:43.866Z,32.15
2023-02-05T18:10:15.302Z,27.58
2023-02-05T18:12:43.319Z,27.58
2023-02-05T18:15:12.057Z,28.50
2023-02-05T18:17:41.107Z,25.67
2023-02-05T18:20:12.937Z,24.35
2023-02-05T18:22:40.932Z,28.42
2023-02-05T18:25:09.978Z,24.52
2023-02-05T18:27:38.187Z,22.83
2023-02-05T18:30:07.652Z,30.70
2023-02-05T18:32:35.559Z,20.48
2023-02-05T18:35:04.077Z,20.85
2023-02-05T18:37:33.369Z,19.35
2023-02-05T18:40:01.233Z,26.87
2023-02-05T18:42:30.883Z,24.60
2023-02-05T18:44:58.673Z,28.08
2023-02-05T18:47:26.582Z,27.42
2023-02-05T18:49:54.423Z,31.00
2023-02-05T18:52:22.953Z,24.63
2023-02-05T18:54:52.740Z,25.42
2023-02-05T18:57:21.016Z,24.92
2023-02-05T18:59:49.015Z,20.83
2023-02-05T19:02:16.965Z,23.70
2023-02-05T19:04:45.625Z,21.55
2023-02-05T19:07:13.596Z,23.15
2023-02-05T19:09:41.610Z,24.48
2023-02-05T19:12:10.858Z,22.45
2023-02-05T19:14:38.931Z,25.90
2023-02-05T19:17:06.905Z,24.40
2023-02-05T19:19:36.067Z,24.40
2023-02-05T19:22:06.312Z,24.83
2023-02-05T19:27:03.125Z,26.85
2023-02-05T19:29:38.052Z,25.23
2023-02-05T19:32:06.770Z,25.10
2023-02-05T19:34:35.694Z,23.60
2023-02-05T19:37:03.574Z,27.85
2023-02-05T19:39:31.686Z,28.30
2023-02-05T19:41:59.660Z,26.73
2023-02-05T19:44:29.494Z,29.77
2023-02-05T19:46:59.137Z,31.45
2023-02-05T19:49:27.224Z,27.70
2023-02-05T19:51:56.539Z,33.33
2023-02-05T19:54:24.482Z,33.00
2023-02-05T19:56:52.807Z,36.55
2023-02-05T19:59:21.146Z,38.78
2023-02-05T20:01:50.116Z,37.65
2023-02-05T20:04:24.254Z,36.83
2023-02-05T20:06:56.571Z,38.13
2023-02-05T20:09:24.639Z,40.40
2023-02-05T20:11:54.583Z,40.28
2023-02-05T20:14:24.002Z,36.22
2023-02-05T20:16:52.790Z,36.95
2023-02-05T20:19:22.677Z,40.13
2023-02-05T20:21:51.152Z,36.13
2023-02-05T20:24:19.131Z,37.80
2023-02-05T20:26:48.765Z,38.15
2023-02-05T20:29:34.929Z,38.50
2023-02-05T20:32:02.947Z,39.50
2023-02-05T20:34:35.332Z,35.90
2023-02-05T20:37:05.957Z,34.15
2023-02-05T20:42:03.640Z,28.23
2023-02-05T20:44:36.193Z,32.33
2023-02-05T20:47:04.516Z,31.17
2023-02-05T20:49:35.213Z,24.83
2023-02-05T20:52:03.159Z,26.95
2023-02-05T20:54:31.593Z,31.33
2023-02-05T20:57:00.358Z,28.67
2023-02-05T20:59:29.064Z,23.77
2023-02-05T21:01:57.101Z,27.58
2023-02-05T21:04:25.518Z,28.98
2023-02-05T21:06:55.076Z,25.27
2023-02-05T21:09:23.360Z,27.50
2023-02-05T21:11:55.311Z,27.10
2023-02-05T21:14:23.518Z,30.95
2023-02-05T21:16:51.718Z,29.45
2023-02-05T21:19:19.878Z,30.23
2023-02-05T21:21:50.328Z,30.00
2023-02-05T21:24:20.768Z,32.25
2023-02-05T21:26:50.674Z,36.72
2023-02-05T21:29:20.658Z,36.50
2023-02-05T21:31:50.650Z,34.13
2023-02-05T21:34:21.774Z,40.35
2023-02-05T21:36:50.761Z,36.72
2023-02-05T21:39:20.555Z,38.15
2023-02-05T21:41:50.505Z,42.58
2023-02-05T21:44:19.223Z,43.13
2023-02-05T21:46:47.210Z,36.97
2023-02-05T21:49:15.576Z,42.42
2023-02-05T21:51:43.640Z,46.20
2023-02-05T21:54:13.248Z,40.75
2023-02-05T21:56:44.140Z,39.00
2023-02-05T21:59:15.477Z,36.45
2023-02-05T22:01:43.753Z,45.80
2023-02-05T22:04:13.831Z,36.30
2023-02-05T22:06:42.238Z,37.00
2023-02-05T22:09:12.084Z,35.88
2023-02-05T22:11:40.628Z,32.53
2023-02-05T22:14:10.889Z,36.17
2023-02-05T22:19:07.982Z,36.58
2023-02-05T22:21:38.072Z,34.15
2023-02-05T22:24:08.028Z,35.38
2023-02-05T22:26:38.808Z,33.17
2023-02-05T22:29:10.061Z,34.05
2023-02-05T22:31:38.166Z,27.63
2023-02-05T22:34:06.755Z,29.15
2023-02-05T22:36:36.352Z,28.05
2023-02-05T22:39:06.098Z,26.20
2023-02-05T22:41:36.040Z,26.02
2023-02-05T22:44:05.735Z,22.13
2023-02-05T22:46:38.795Z,22.85
2023-02-05T22:49:06.794Z,26.20
2023-02-05T22:51:37.021Z,24.13
2023-02-05T22:56:34.088Z,23.40
2023-02-05T22:59:03.571Z,20.05
2023-02-05T23:01:35.165Z,21.77
2023-02-05T23:04:05.384Z,20.02
2023-02-05T23:09:04.335Z,19.23
2023-02-05T23:11:33.537Z,18.50
2023-02-05T23:14:02.152Z,17.40
2023-02-05T23:16:32.496Z,21.50
2023-02-05T23:19:04.746Z,19.23
2023-02-05T23:21:35.604Z,17.20
2023-02-05T23:24:04.402Z,16.15
2023-02-05T23:26:33.512Z,17.80
2023-02-05T23:29:01.778Z,17.50
2023-02-05T23:31:30.645Z,17.05
2023-02-05T23:33:58.932Z,16.00
2023-02-05T23:36:28.257Z,15.68
2023-02-05T23:38:56.162Z,16.97
2023-02-05T23:41:36.679Z,17.13
2023-02-05T23:44:06.873Z,17.48
2023-02-05T23:46:35.503Z,15.98
2023-02-05T23:49:03.641Z,19.27
2023-02-05T23:51:33.630Z,18.52
2023-02-05T23:54:03.558Z,20.55
2023-02-05T23:56:31.592Z,21.02
2023-02-05T23:59:00.165Z,15.95
